Time;durP1;ratioP1;P1;durP2;ratioP2;P2;SDS_P1;SDS_P2;PMS_P1;PMS_P2;Temp;Humidity;BMP_temperature;BMP_pressure;BME280_temperature;BME280_humidity;BME280_pressure;Samples;Min_cycle;Max_cycle;Signal;HPM_P1;HPM_P2
2023/01/07 00:01:49;;;;;;;28.03;14.17;;;;;;;;;;772871;179;919170;-67
2023/01/07 00:04:15;;;;;;;25.17;14.00;;;;;;;;;;775075;180;613923;-63
2023/01/07 00:06:41;;;;;;;20.60;13.77;;;;;;;;;;774435;182;919625;-62
2023/01/07 00:09:07;;;;;;;23.17;13.90;;;;;;;;;;774439;179;915468;-63
2023/01/07 00:11:32;;;;;;;21.17;13.80;;;;;;;;;;769536;182;920431;-63
2023/01/07 00:13:58;;;;;;;20.40;11.17;;;;;;;;;;771082;180;877265;-68
2023/01/07 00:16:24;;;;;;;25.23;12.10;;;;;;;;;;754417;184;919016;-63
2023/01/07 00:18:50;;;;;;;15.33;9.93;;;;;;;;;;758785;182;907300;-63
2023/01/07 00:21:16;;;;;;;21.70;11.30;;;;;;;;;;776409;180;917110;-70
2023/01/07 00:23:42;;;;;;;19.17;11.27;;;;;;;;;;776447;180;630297;-63
2023/01/07 00:26:08;;;;;;;17.23;10.60;;;;;;;;;;774013;181;851356;-63
2023/01/07 00:28:34;;;;;;;15.80;9.90;;;;;;;;;;780689;179;626973;-63
2023/01/07 00:30:59;;;;;;;15.70;10.70;;;;;;;;;;775274;180;639578;-69
2023/01/07 00:33:27;;;;;;;16.47;11.33;;;;;;;;;;775014;182;642690;-68
2023/01/07 00:35:51;;;;;;;14.97;10.67;;;;;;;;;;777531;179;636757;-67
2023/01/07 00:38:18;;;;;;;16.00;11.43;;;;;;;;;;777717;180;614321;-63
2023/01/07 00:40:43;;;;;;;22.87;11.83;;;;;;;;;;776602;180;644923;-70
2023/01/07 00:43:10;;;;;;;18.13;12.23;;;;;;;;;;774257;180;916591;-68
2023/01/07 00:45:34;;;;;;;17.20;10.90;;;;;;;;;;779437;180;918569;-68
2023/01/07 00:48:00;;;;;;;17.30;11.43;;;;;;;;;;773779;180;918722;-68
2023/01/07 00:50:26;;;;;;;20.55;11.32;;;;;;;;;;772979;181;918104;-63
2023/01/07 00:52:52;;;;;;;20.23;11.30;;;;;;;;;;778079;180;920745;-63
2023/01/07 00:55:18;;;;;;;18.60;12.10;;;;;;;;;;759422;182;918022;-68
2023/01/07 00:57:44;;;;;;;18.63;10.00;;;;;;;;;;757627;184;916329;-68
2023/01/07 01:00:10;;;;;;;16.30;9.53;;;;;;;;;;774132;181;890148;-68
2023/01/07 01:02:36;;;;;;;19.63;10.27;;;;;;;;;;772974;182;920034;-63
2023/01/07 01:05:02;;;;;;;18.33;10.07;;;;;;;;;;769810;181;919668;-63
2023/01/07 01:07:28;;;;;;;20.50;10.63;;;;;;;;;;771621;182;918960;-63
2023/01/07 01:09:54;;;;;;;18.90;11.20;;;;;;;;;;778109;182;917251;-63
2023/01/07 01:12:19;;;;;;;14.73;10.33;;;;;;;;;;773761;180;814122;-63
2023/01/07 01:14:45;;;;;;;15.73;10.20;;;;;;;;;;770582;181;918866;-68
2023/01/07 01:17:11;;;;;;;17.13;10.00;;;;;;;;;;778585;181;817415;-62
2023/01/07 01:19:37;;;;;;;14.47;9.93;;;;;;;;;;775241;180;835877;-68
2023/01/07 01:22:03;;;;;;;16.17;9.43;;;;;;;;;;774149;179;917930;-62
2023/01/07 01:24:29;;;;;;;18.17;9.13;;;;;;;;;;779593;181;628905;-68
2023/01/07 01:26:54;;;;;;;12.23;9.00;;;;;;;;;;769908;181;919017;-62
2023/01/07 01:29:20;;;;;;;13.50;8.70;;;;;;;;;;766519;182;820786;-62
2023/01/07 01:31:47;;;;;;;17.03;10.13;;;;;;;;;;754647;184;879821;-63
2023/01/07 01:34:12;;;;;;;14.43;8.97;;;;;;;;;;762573;182;905451;-62
2023/01/07 01:36:38;;;;;;;14.70;10.27;;;;;;;;;;772469;181;905068;-62
2023/01/07 01:39:04;;;;;;;13.48;8.65;;;;;;;;;;771687;179;915529;-68
2023/01/07 01:41:30;;;;;;;20.53;11.30;;;;;;;;;;775189;181;817151;-62
2023/01/07 01:43:55;;;;;;;20.27;10.30;;;;;;;;;;769365;182;915943;-62
2023/01/07 01:46:24;;;;;;;15.07;9.67;;;;;;;;;;762744;182;919565;-68
2023/01/07 01:48:50;;;;;;;17.33;10.00;;;;;;;;;;767859;182;919564;-68
2023/01/07 01:51:16;;;;;;;16.85;11.32;;;;;;;;;;764942;183;919339;-63
2023/01/07 01:53:42;;;;;;;21.57;12.30;;;;;;;;;;764967;183;919432;-68
2023/01/07 01:56:08;;;;;;;16.00;11.40;;;;;;;;;;768276;180;917788;-62
2023/01/07 01:58:34;;;;;;;19.13;11.90;;;;;;;;;;769398;181;919614;-70
2023/01/07 02:01:00;;;;;;;17.13;11.30;;;;;;;;;;769113;180;920670;-63
2023/01/07 02:03:26;;;;;;;16.80;11.07;;;;;;;;;;770002;180;920820;-63
2023/01/07 02:05:51;;;;;;;27.30;12.13;;;;;;;;;;778483;180;926537;-63
2023/01/07 02:08:21;;;;;;;23.33;13.30;;;;;;;;;;775489;181;920377;-69
2023/01/07 02:10:43;;;;;;;28.17;12.33;;;;;;;;;;760944;181;916351;-68
2023/01/07 02:13:23;;;;;;;16.10;11.00;;;;;;;;;;759398;186;920015;-63
2023/01/07 02:15:50;;;;;;;17.17;11.20;;;;;;;;;;770538;181;1127283;-63
2023/01/07 02:18:16;;;;;;;19.93;10.33;;;;;;;;;;770544;181;959515;-63
2023/01/07 02:20:58;;;;;;;19.30;10.13;;;;;;;;;;771143;181;919515;-63
2023/01/07 02:23:24;;;;;;;21.03;11.60;;;;;;;;;;772640;180;814968;-68
2023/01/07 02:25:54;;;;;;;18.30;11.87;;;;;;;;;;773679;180;877458;-63
2023/01/07 02:28:23;;;;;;;21.57;12.07;;;;;;;;;;779577;180;877190;-67
2023/01/07 02:30:54;;;;;;;38.37;12.53;;;;;;;;;;758686;181;1123277;-63
2023/01/07 02:33:37;;;;;;;21.30;11.67;;;;;;;;;;753877;185;922540;-68
2023/01/07 02:36:05;;;;;;;15.37;11.37;;;;;;;;;;768503;181;919050;-69
2023/01/07 02:38:42;;;;;;;19.57;10.20;;;;;;;;;;769938;181;919940;-68
2023/01/07 02:41:09;;;;;;;18.37;11.52;;;;;;;;;;773701;179;924649;-68
2023/01/07 02:43:36;;;;;;;27.90;12.43;;;;;;;;;;783169;178;919175;-64
2023/01/07 02:46:09;;;;;;;22.27;12.03;;;;;;;;;;770417;182;919155;-69
2023/01/07 02:48:33;;;;;;;25.47;11.30;;;;;;;;;;769586;181;922014;-68
2023/01/07 02:50:58;;;;;;;17.53;11.03;;;;;;;;;;771677;180;916999;-63
2023/01/07 02:53:24;;;;;;;22.03;12.77;;;;;;;;;;758154;185;923081;-63
2023/01/07 02:55:56;;;;;;;19.83;13.17;;;;;;;;;;756452;183;919737;-63
2023/01/07 02:58:37;;;;;;;23.93;12.37;;;;;;;;;;754768;185;919195;-63
2023/01/07 03:01:05;;;;;;;21.73;14.65;;;;;;;;;;766141;181;919298;-63
2023/01/07 03:03:32;;;;;;;33.43;13.77;;;;;;;;;;775327;181;713782;-64
2023/01/07 03:06:06;;;;;;;27.97;15.33;;;;;;;;;;773637;180;616955;-69
2023/01/07 03:08:34;;;;;;;28.40;14.20;;;;;;;;;;773749;182;629638;-68
2023/01/07 03:11:00;;;;;;;48.73;15.73;;;;;;;;;;776052;181;917879;-68
2023/01/07 03:13:26;;;;;;;28.80;13.90;;;;;;;;;;783936;181;636617;-69
2023/01/07 03:15:52;;;;;;;22.10;12.70;;;;;;;;;;766180;181;919690;-69
2023/01/07 03:18:24;;;;;;;19.45;12.75;;;;;;;;;;752871;184;1023014;-70
2023/01/07 03:20:50;;;;;;;23.13;12.40;;;;;;;;;;755000;182;918983;-63
2023/01/07 03:23:16;;;;;;;27.07;12.73;;;;;;;;;;767067;180;854468;-63
2023/01/07 03:25:42;;;;;;;20.03;12.33;;;;;;;;;;762578;182;920356;-68
2023/01/07 03:28:07;;;;;;;25.27;13.45;;;;;;;;;;771793;182;1021692;-68
2023/01/07 03:30:33;;;;;;;20.50;12.80;;;;;;;;;;775564;182;918914;-63
2023/01/07 03:33:00;;;;;;;22.45;13.18;;;;;;;;;;771993;181;919914;-71
2023/01/07 03:35:25;;;;;;;25.50;12.83;;;;;;;;;;766672;182;919584;-68
2023/01/07 03:37:51;;;;;;;25.47;12.83;;;;;;;;;;760559;186;923179;-68
2023/01/07 03:40:17;;;;;;;27.40;12.35;;;;;;;;;;759027;182;919339;-68
2023/01/07 03:42:44;;;;;;;18.30;12.13;;;;;;;;;;769877;180;918420;-69
2023/01/07 03:45:10;;;;;;;26.67;13.10;;;;;;;;;;769903;182;918626;-68
2023/01/07 03:47:35;;;;;;;19.40;13.83;;;;;;;;;;772953;181;920474;-69
2023/01/07 03:50:01;;;;;;;58.87;16.43;;;;;;;;;;771804;181;921002;-68
2023/01/07 03:52:27;;;;;;;22.13;11.60;;;;;;;;;;772390;182;920723;-69
2023/01/07 03:54:53;;;;;;;18.83;10.90;;;;;;;;;;778929;180;812794;-68
2023/01/07 03:57:19;;;;;;;18.47;11.63;;;;;;;;;;769614;180;914429;-69
2023/01/07 03:59:45;;;;;;;32.65;12.05;;;;;;;;;;772243;181;918530;-64
2023/01/07 04:02:10;;;;;;;19.97;12.60;;;;;;;;;;763776;181;917579;-63
2023/01/07 04:04:36;;;;;;;19.47;11.60;;;;;;;;;;763175;182;918477;-68
2023/01/07 04:07:02;;;;;;;21.43;12.80;;;;;;;;;;764936;182;919207;-68
2023/01/07 04:09:28;;;;;;;22.42;13.55;;;;;;;;;;768019;183;919491;-68
2023/01/07 04:11:54;;;;;;;24.83;12.60;;;;;;;;;;769952;182;817003;-69
2023/01/07 04:14:20;;;;;;;92.50;18.77;;;;;;;;;;770755;182;919033;-63
2023/01/07 04:16:46;;;;;;;79.20;14.30;;;;;;;;;;771302;182;916896;-68
2023/01/07 04:19:12;;;;;;;250.17;27.60;;;;;;;;;;775935;179;914139;-63
2023/01/07 04:21:38;;;;;;;252.40;29.20;;;;;;;;;;772105;179;916310;-64
2023/01/07 04:24:04;;;;;;;283.50;29.00;;;;;;;;;;773439;179;943127;-64
2023/01/07 04:26:31;;;;;;;270.47;27.40;;;;;;;;;;779608;180;942209;-64
2023/01/07 04:28:55;;;;;;;215.67;22.33;;;;;;;;;;774414;182;918884;-64
2023/01/07 04:31:21;;;;;;;277.87;26.63;;;;;;;;;;774791;181;918470;-63
2023/01/07 04:33:47;;;;;;;289.13;28.10;;;;;;;;;;778004;180;918385;-64
2023/01/07 04:36:13;;;;;;;327.40;32.47;;;;;;;;;;764006;180;919075;-64
2023/01/07 04:38:39;;;;;;;149.20;24.10;;;;;;;;;;754246;185;921165;-63
2023/01/07 04:41:05;;;;;;;342.27;34.60;;;;;;;;;;757281;182;920010;-63
2023/01/07 04:43:31;;;;;;;466.10;42.30;;;;;;;;;;773087;180;818042;-64
2023/01/07 04:45:56;;;;;;;449.57;40.20;;;;;;;;;;766761;181;918802;-63
2023/01/07 04:48:22;;;;;;;419.70;37.20;;;;;;;;;;770984;182;917674;-68
2023/01/07 04:50:48;;;;;;;424.20;36.57;;;;;;;;;;778139;182;860284;-63
2023/01/07 04:53:14;;;;;;;376.63;30.77;;;;;;;;;;775417;181;862368;-64
2023/01/07 04:55:40;;;;;;;248.95;25.15;;;;;;;;;;771497;179;915155;-64
2023/01/07 04:58:06;;;;;;;297.63;25.93;;;;;;;;;;773893;180;911596;-69
2023/01/07 05:00:32;;;;;;;100.97;15.20;;;;;;;;;;765814;182;1016653;-63
2023/01/07 05:02:57;;;;;;;133.13;15.67;;;;;;;;;;767011;181;918377;-63
2023/01/07 05:05:23;;;;;;;120.00;15.20;;;;;;;;;;765783;181;1020815;-64
2023/01/07 05:07:49;;;;;;;20.67;10.87;;;;;;;;;;763235;181;919357;-63
2023/01/07 05:10:15;;;;;;;82.20;16.70;;;;;;;;;;767466;180;917669;-63
2023/01/07 05:12:41;;;;;;;90.30;16.45;;;;;;;;;;768750;182;1021916;-64
2023/01/07 05:15:07;;;;;;;310.50;31.70;;;;;;;;;;775738;181;838737;-63
2023/01/07 05:17:33;;;;;;;354.80;36.33;;;;;;;;;;770198;181;914861;-63
2023/01/07 05:19:59;;;;;;;284.37;27.20;;;;;;;;;;770166;182;921214;-63
2023/01/07 05:22:25;;;;;;;88.77;14.87;;;;;;;;;;773799;182;919100;-63
2023/01/07 05:24:50;;;;;;;76.00;16.77;;;;;;;;;;769030;179;929757;-63
2023/01/07 05:27:16;;;;;;;141.33;20.63;;;;;;;;;;769488;181;918843;-63
2023/01/07 05:29:42;;;;;;;211.63;24.40;;;;;;;;;;766394;182;918134;-63
2023/01/07 05:32:08;;;;;;;201.17;23.83;;;;;;;;;;773144;178;919235;-68
2023/01/07 05:34:34;;;;;;;171.05;20.20;;;;;;;;;;766195;180;919220;-69
2023/01/07 05:37:00;;;;;;;317.90;31.60;;;;;;;;;;773712;181;918535;-64
2023/01/07 05:39:25;;;;;;;186.63;23.13;;;;;;;;;;777146;179;912449;-63
2023/01/07 05:41:51;;;;;;;188.20;28.17;;;;;;;;;;773571;179;913317;-63
2023/01/07 05:44:17;;;;;;;295.70;33.03;;;;;;;;;;772765;181;901022;-68
2023/01/07 05:46:43;;;;;;;87.50;17.77;;;;;;;;;;778231;181;918844;-68
2023/01/07 05:49:09;;;;;;;104.03;17.57;;;;;;;;;;767867;181;920694;-63
2023/01/07 05:51:35;;;;;;;150.93;24.20;;;;;;;;;;764026;182;919105;-69
2023/01/07 05:54:01;;;;;;;196.35;28.85;;;;;;;;;;777746;179;918819;-63
2023/01/07 05:56:26;;;;;;;151.93;22.13;;;;;;;;;;772189;182;931425;-63
2023/01/07 05:58:52;;;;;;;315.27;33.20;;;;;;;;;;767202;181;919481;-63
2023/01/07 06:01:18;;;;;;;487.00;47.80;;;;;;;;;;768151;181;918618;-68
2023/01/07 06:03:44;;;;;;;384.47;38.10;;;;;;;;;;771289;181;816779;-63
2023/01/07 06:06:10;;;;;;;259.10;23.37;;;;;;;;;;768189;179;920652;-68
2023/01/07 06:08:36;;;;;;;192.63;23.57;;;;;;;;;;769203;180;919428;-69
2023/01/07 06:11:01;;;;;;;262.70;23.57;;;;;;;;;;773751;179;920103;-69
2023/01/07 06:13:27;;;;;;;179.53;19.17;;;;;;;;;;770913;179;916905;-64
2023/01/07 06:15:53;;;;;;;175.60;17.87;;;;;;;;;;769386;182;818094;-70
2023/01/07 06:18:19;;;;;;;127.20;16.40;;;;;;;;;;767554;182;1021817;-63
2023/01/07 06:20:45;;;;;;;193.30;21.73;;;;;;;;;;763335;182;1023072;-63
2023/01/07 06:23:11;;;;;;;332.60;23.87;;;;;;;;;;765607;181;919279;-69
2023/01/07 06:25:36;;;;;;;294.40;23.77;;;;;;;;;;769551;181;885533;-69
2023/01/07 06:28:02;;;;;;;364.38;24.15;;;;;;;;;;771667;180;920696;-62
2023/01/07 06:30:28;;;;;;;200.03;17.57;;;;;;;;;;769855;182;1020438;-63
2023/01/07 06:32:54;;;;;;;170.43;13.60;;;;;;;;;;765928;181;918968;-68
2023/01/07 06:35:20;;;;;;;306.87;21.70;;;;;;;;;;771687;181;918247;-68
2023/01/07 06:37:46;;;;;;;134.47;14.13;;;;;;;;;;765051;182;913652;-63
2023/01/07 06:40:12;;;;;;;214.27;18.90;;;;;;;;;;768526;181;915051;-63
2023/01/07 06:42:37;;;;;;;292.77;18.73;;;;;;;;;;773604;181;1014345;-63
2023/01/07 06:45:04;;;;;;;285.77;19.70;;;;;;;;;;771446;180;739323;-69
2023/01/07 06:47:30;;;;;;;180.83;15.90;;;;;;;;;;769194;179;916270;-68
2023/01/07 06:49:55;;;;;;;177.00;15.47;;;;;;;;;;774215;181;915497;-64
2023/01/07 06:52:21;;;;;;;214.03;16.97;;;;;;;;;;767807;180;919477;-69
2023/01/07 06:54:47;;;;;;;269.97;16.47;;;;;;;;;;772385;180;919075;-69
2023/01/07 06:57:13;;;;;;;222.67;16.53;;;;;;;;;;769354;180;906009;-69
2023/01/07 06:59:39;;;;;;;232.03;15.77;;;;;;;;;;769428;181;1030311;-70
2023/01/07 07:02:05;;;;;;;157.30;12.97;;;;;;;;;;769852;180;919416;-68
2023/01/07 07:04:31;;;;;;;128.57;12.83;;;;;;;;;;766375;182;902002;-71
2023/01/07 07:06:57;;;;;;;134.37;11.70;;;;;;;;;;772107;180;880620;-68
2023/01/07 07:09:23;;;;;;;79.93;8.30;;;;;;;;;;766627;180;910826;-65
2023/01/07 07:11:49;;;;;;;88.43;10.13;;;;;;;;;;766579;181;917538;-63
2023/01/07 07:14:14;;;;;;;49.33;8.30;;;;;;;;;;770319;181;919139;-65
2023/01/07 07:16:40;;;;;;;59.03;9.17;;;;;;;;;;766670;182;919746;-64
2023/01/07 07:19:06;;;;;;;43.00;7.47;;;;;;;;;;765619;182;919129;-69
2023/01/07 07:21:32;;;;;;;30.93;6.60;;;;;;;;;;766756;181;918495;-65
2023/01/07 07:23:59;;;;;;;24.13;7.83;;;;;;;;;;773463;180;916857;-65
2023/01/07 07:26:24;;;;;;;38.23;8.50;;;;;;;;;;767076;181;909877;-65
2023/01/07 07:28:50;;;;;;;8.77;6.30;;;;;;;;;;770355;181;814056;-69
2023/01/07 07:31:15;;;;;;;52.33;10.20;;;;;;;;;;773024;181;946104;-65
2023/01/07 07:33:41;;;;;;;24.83;8.90;;;;;;;;;;769413;180;919099;-69
2023/01/07 07:36:07;;;;;;;37.93;15.30;;;;;;;;;;769406;181;871270;-64
2023/01/07 07:38:33;;;;;;;51.23;17.27;;;;;;;;;;771187;180;919172;-66
2023/01/07 07:40:59;;;;;;;95.00;27.47;;;;;;;;;;767409;181;820796;-70
2023/01/07 07:43:25;;;;;;;41.55;17.70;;;;;;;;;;764172;181;918758;-65
2023/01/07 07:45:51;;;;;;;65.07;15.00;;;;;;;;;;766596;182;982289;-69
2023/01/07 07:48:17;;;;;;;38.77;11.43;;;;;;;;;;777472;179;917500;-70
2023/01/07 07:50:42;;;;;;;34.40;15.27;;;;;;;;;;764395;182;918809;-69
2023/01/07 07:53:09;;;;;;;54.30;18.13;;;;;;;;;;767337;180;914409;-68
2023/01/07 07:55:35;;;;;;;126.53;39.07;;;;;;;;;;779767;181;917618;-64
2023/01/07 07:58:01;;;;;;;132.20;39.73;;;;;;;;;;770470;179;919070;-64
2023/01/07 08:00:27;;;;;;;66.40;28.50;;;;;;;;;;770151;181;943086;-64
2023/01/07 08:02:53;;;;;;;163.55;37.15;;;;;;;;;;774316;181;920610;-68
2023/01/07 08:05:18;;;;;;;88.57;34.50;;;;;;;;;;771319;181;922384;-63
2023/01/07 08:07:44;;;;;;;78.20;20.27;;;;;;;;;;768667;181;918425;-64
2023/01/07 08:10:10;;;;;;;38.30;19.10;;;;;;;;;;768724;181;919078;-64
2023/01/07 08:12:37;;;;;;;207.57;24.70;;;;;;;;;;775683;180;919040;-67
2023/01/07 08:15:02;;;;;;;187.27;22.00;;;;;;;;;;768039;180;918484;-63
2023/01/07 08:17:28;;;;;;;172.98;20.50;;;;;;;;;;765778;181;1023630;-63
2023/01/07 08:19:54;;;;;;;317.00;33.37;;;;;;;;;;771763;181;920167;-67
2023/01/07 08:22:20;;;;;;;239.00;25.80;;;;;;;;;;770021;179;866627;-62
2023/01/07 08:24:45;;;;;;;188.95;20.67;;;;;;;;;;769052;181;914807;-67
2023/01/07 08:27:11;;;;;;;213.60;21.70;;;;;;;;;;772212;182;913499;-68
2023/01/07 08:29:37;;;;;;;160.57;21.43;;;;;;;;;;771480;181;914662;-63
2023/01/07 08:32:04;;;;;;;181.03;21.40;;;;;;;;;;768633;181;918925;-67
2023/01/07 08:34:32;;;;;;;222.03;27.07;;;;;;;;;;766248;180;920930;-63
2023/01/07 08:36:59;;;;;;;200.07;26.27;;;;;;;;;;768830;181;917628;-67
2023/01/07 08:39:25;;;;;;;40.80;21.87;;;;;;;;;;765847;181;918596;-67
2023/01/07 08:41:51;;;;;;;76.77;26.23;;;;;;;;;;771705;181;817073;-63
2023/01/07 08:44:16;;;;;;;45.63;23.37;;;;;;;;;;772721;179;916298;-62
2023/01/07 08:46:42;;;;;;;111.30;17.33;;;;;;;;;;774707;181;919259;-62
2023/01/07 08:49:08;;;;;;;36.28;14.90;;;;;;;;;;772591;180;918103;-67
2023/01/07 08:51:34;;;;;;;45.83;14.37;;;;;;;;;;772743;182;816174;-63
2023/01/07 08:54:00;;;;;;;60.30;16.97;;;;;;;;;;769361;180;816560;-64
2023/01/07 08:56:26;;;;;;;20.73;13.47;;;;;;;;;;761332;182;1022074;-68
2023/01/07 08:58:51;;;;;;;18.20;10.97;;;;;;;;;;770879;180;932104;-67
2023/01/07 09:01:17;;;;;;;12.90;9.98;;;;;;;;;;772401;179;948429;-63
2023/01/07 09:03:43;;;;;;;12.90;10.40;;;;;;;;;;768057;179;918633;-67
2023/01/07 09:06:09;;;;;;;11.47;9.33;;;;;;;;;;769943;179;1024312;-62
2023/01/07 09:08:35;;;;;;;10.63;9.53;;;;;;;;;;772792;181;817868;-66
2023/01/07 09:11:01;;;;;;;18.97;15.10;;;;;;;;;;770599;181;919258;-62
2023/01/07 09:13:27;;;;;;;25.93;14.13;;;;;;;;;;771927;180;816763;-62
2023/01/07 09:15:52;;;;;;;33.33;22.50;;;;;;;;;;776605;181;919181;-67
2023/01/07 09:18:20;;;;;;;26.70;17.20;;;;;;;;;;763032;181;812475;-67
2023/01/07 09:20:45;;;;;;;36.60;20.70;;;;;;;;;;766906;181;917933;-62
2023/01/07 09:23:11;;;;;;;32.35;14.18;;;;;;;;;;770746;179;919066;-63
2023/01/07 09:25:37;;;;;;;39.50;18.37;;;;;;;;;;779181;180;926402;-62
2023/01/07 09:28:03;;;;;;;54.50;28.07;;;;;;;;;;766507;180;918290;-65
2023/01/07 09:30:29;;;;;;;36.03;17.02;;;;;;;;;;770817;180;918694;-62
2023/01/07 09:32:55;;;;;;;28.40;16.77;;;;;;;;;;767398;182;918521;-67
2023/01/07 09:35:21;;;;;;;34.70;12.90;;;;;;;;;;771346;182;918586;-66
2023/01/07 09:37:46;;;;;;;61.13;19.90;;;;;;;;;;763607;182;919972;-62
2023/01/07 09:40:14;;;;;;;33.23;13.80;;;;;;;;;;769848;181;919395;-66
2023/01/07 09:42:41;;;;;;;43.13;14.67;;;;;;;;;;765294;182;918654;-67
2023/01/07 09:45:14;;;;;;;67.07;13.80;;;;;;;;;;769016;180;919739;-66
2023/01/07 09:47:40;;;;;;;21.73;13.37;;;;;;;;;;765683;181;916658;-66
2023/01/07 09:50:06;;;;;;;35.73;18.30;;;;;;;;;;771449;180;819358;-67
2023/01/07 09:52:32;;;;;;;24.77;16.00;;;;;;;;;;772050;180;907262;-61
2023/01/07 09:54:59;;;;;;;33.07;21.83;;;;;;;;;;771115;179;930741;-62
2023/01/07 09:57:26;;;;;;;40.73;31.63;;;;;;;;;;775040;180;914505;-66
2023/01/07 09:59:51;;;;;;;37.27;22.87;;;;;;;;;;764165;182;941595;-62
2023/01/07 10:02:27;;;;;;;38.45;25.52;;;;;;;;;;768082;182;916489;-62
2023/01/07 10:04:52;;;;;;;37.13;26.10;;;;;;;;;;765983;181;887027;-62
2023/01/07 10:07:33;;;;;;;32.20;18.87;;;;;;;;;;768886;182;816833;-65
2023/01/07 10:10:00;;;;;;;29.17;21.00;;;;;;;;;;767463;181;918870;-62
2023/01/07 10:12:31;;;;;;;32.57;23.03;;;;;;;;;;765984;181;917168;-68
2023/01/07 10:14:57;;;;;;;33.60;21.77;;;;;;;;;;772537;179;919632;-62
2023/01/07 10:17:27;;;;;;;29.37;18.57;;;;;;;;;;772958;180;817392;-67
2023/01/07 10:20:07;;;;;;;27.67;16.97;;;;;;;;;;771849;181;869181;-62
2023/01/07 10:22:33;;;;;;;22.00;15.60;;;;;;;;;;785817;177;922349;-69
2023/01/07 10:25:00;;;;;;;23.10;14.77;;;;;;;;;;772561;180;919501;-67
2023/01/07 10:27:38;;;;;;;17.80;12.53;;;;;;;;;;765947;181;919310;-63
2023/01/07 10:30:04;;;;;;;19.00;13.27;;;;;;;;;;768040;182;918157;-67
2023/01/07 10:32:30;;;;;;;18.23;12.07;;;;;;;;;;776133;180;919545;-62
2023/01/07 10:34:56;;;;;;;14.20;11.17;;;;;;;;;;771515;181;919174;-63
2023/01/07 10:37:27;;;;;;;11.93;9.97;;;;;;;;;;772838;181;920380;-67
2023/01/07 10:39:59;;;;;;;11.85;9.15;;;;;;;;;;762802;180;919778;-67
2023/01/07 10:42:26;;;;;;;15.37;11.53;;;;;;;;;;771780;181;919212;-62
2023/01/07 10:44:54;;;;;;;14.07;11.00;;;;;;;;;;767742;181;900167;-61
2023/01/07 10:47:22;;;;;;;16.10;10.87;;;;;;;;;;758651;180;917124;-65
2023/01/07 10:50:05;;;;;;;18.20;11.80;;;;;;;;;;766831;182;916700;-65
2023/01/07 10:52:31;;;;;;;20.80;13.73;;;;;;;;;;772716;181;919207;-61
2023/01/07 10:54:57;;;;;;;24.13;11.60;;;;;;;;;;777204;181;816768;-65
2023/01/07 10:57:23;;;;;;;17.90;12.87;;;;;;;;;;770629;179;918241;-62
2023/01/07 10:59:49;;;;;;;16.43;12.73;;;;;;;;;;765748;180;1018391;-62
2023/01/07 11:02:16;;;;;;;14.77;10.57;;;;;;;;;;772767;182;816508;-62
2023/01/07 11:04:42;;;;;;;14.17;12.00;;;;;;;;;;769216;182;915467;-61
2023/01/07 11:07:08;;;;;;;14.37;10.33;;;;;;;;;;771493;182;918207;-61
2023/01/07 11:09:34;;;;;;;12.53;10.10;;;;;;;;;;772089;182;914537;-62
2023/01/07 11:12:00;;;;;;;15.27;11.60;;;;;;;;;;762874;182;816072;-67
2023/01/07 11:14:27;;;;;;;13.40;11.03;;;;;;;;;;770499;181;918861;-66
2023/01/07 11:16:53;;;;;;;13.63;9.07;;;;;;;;;;767642;182;918637;-65
2023/01/07 11:19:18;;;;;;;10.43;8.53;;;;;;;;;;775645;182;918709;-62
2023/01/07 11:21:44;;;;;;;10.23;7.93;;;;;;;;;;766999;180;920087;-61
2023/01/07 11:24:16;;;;;;;10.90;8.70;;;;;;;;;;768369;180;919366;-62
2023/01/07 11:26:42;;;;;;;13.40;8.10;;;;;;;;;;764229;181;945323;-65
2023/01/07 11:29:14;;;;;;;10.90;7.70;;;;;;;;;;766448;180;920336;-62
2023/01/07 11:31:41;;;;;;;10.37;6.33;;;;;;;;;;778104;180;815603;-66
2023/01/07 11:34:07;;;;;;;9.82;6.82;;;;;;;;;;771620;179;919501;-66
2023/01/07 11:36:38;;;;;;;11.37;7.47;;;;;;;;;;773378;181;919476;-66
2023/01/07 11:39:08;;;;;;;10.90;8.50;;;;;;;;;;773259;180;806474;-62
2023/01/07 11:41:34;;;;;;;9.77;8.20;;;;;;;;;;766906;181;918045;-66
2023/01/07 11:44:00;;;;;;;12.13;8.30;;;;;;;;;;772473;181;919032;-62
2023/01/07 11:46:30;;;;;;;10.83;8.60;;;;;;;;;;773284;181;917314;-66
2023/01/07 11:48:52;;;;;;;10.50;7.43;;;;;;;;;;767749;181;816492;-62
2023/01/07 11:51:18;;;;;;;12.40;7.33;;;;;;;;;;765360;182;857468;-65
2023/01/07 11:53:52;;;;;;;9.53;7.30;;;;;;;;;;771071;182;874634;-62
2023/01/07 11:56:22;;;;;;;8.93;5.63;;;;;;;;;;778695;178;919137;-65
2023/01/07 11:58:48;;;;;;;8.30;6.17;;;;;;;;;;773274;180;919019;-62
2023/01/07 12:01:13;;;;;;;6.97;5.20;;;;;;;;;;770442;181;816280;-62
2023/01/07 12:03:54;;;;;;;6.93;5.73;;;;;;;;;;767602;179;912114;-62
2023/01/07 12:06:20;;;;;;;6.80;5.70;;;;;;;;;;767366;179;913922;-65
2023/01/07 12:08:49;;;;;;;6.60;5.17;;;;;;;;;;772288;180;937823;-67
2023/01/07 12:11:14;;;;;;;7.67;5.67;;;;;;;;;;771703;180;918551;-67
2023/01/07 12:13:40;;;;;;;6.70;4.90;;;;;;;;;;766121;182;821418;-65
2023/01/07 12:16:06;;;;;;;7.00;4.57;;;;;;;;;;775779;181;816956;-65
2023/01/07 12:18:38;;;;;;;7.77;5.10;;;;;;;;;;769272;181;1024670;-62
2023/01/07 12:21:05;;;;;;;6.77;4.67;;;;;;;;;;767174;181;895655;-66
2023/01/07 12:23:32;;;;;;;7.62;4.93;;;;;;;;;;766978;182;919552;-66
2023/01/07 12:26:00;;;;;;;7.20;4.53;;;;;;;;;;774522;182;918005;-66
2023/01/07 12:28:32;;;;;;;4.90;3.60;;;;;;;;;;771258;181;657611;-67
2023/01/07 12:30:58;;;;;;;4.50;3.83;;;;;;;;;;768568;181;847195;-62
2023/01/07 12:33:26;;;;;;;4.83;3.40;;;;;;;;;;767856;181;815713;-66
2023/01/07 12:35:52;;;;;;;5.63;3.77;;;;;;;;;;767105;182;919353;-62
2023/01/07 12:38:19;;;;;;;6.43;3.20;;;;;;;;;;764275;181;920956;-66
2023/01/07 12:40:47;;;;;;;5.60;3.67;;;;;;;;;;771524;179;815243;-62
2023/01/07 12:43:13;;;;;;;5.90;3.90;;;;;;;;;;773937;180;1003063;-62
2023/01/07 12:45:42;;;;;;;7.30;4.20;;;;;;;;;;774484;179;919136;-67
2023/01/07 12:48:08;;;;;;;4.63;3.43;;;;;;;;;;772338;181;918754;-62
2023/01/07 12:50:34;;;;;;;4.43;3.30;;;;;;;;;;766098;182;920693;-64
2023/01/07 12:53:00;;;;;;;5.60;3.97;;;;;;;;;;762268;181;923923;-64
2023/01/07 12:55:30;;;;;;;6.20;4.50;;;;;;;;;;765528;180;922302;-65
2023/01/07 12:58:16;;;;;;;7.60;4.23;;;;;;;;;;770066;181;917956;-70
2023/01/07 13:00:45;;;;;;;5.40;4.00;;;;;;;;;;773374;178;843194;-70
2023/01/07 13:03:16;;;;;;;6.43;4.43;;;;;;;;;;771272;181;817693;-69
2023/01/07 13:05:42;;;;;;;5.47;4.33;;;;;;;;;;772360;180;816961;-69
2023/01/07 13:08:11;;;;;;;7.40;4.37;;;;;;;;;;771520;181;915404;-64
2023/01/07 13:10:40;;;;;;;5.90;4.00;;;;;;;;;;769437;181;914906;-70
2023/01/07 13:13:06;;;;;;;8.00;4.60;;;;;;;;;;768145;182;805675;-64
2023/01/07 13:15:32;;;;;;;6.17;4.43;;;;;;;;;;774765;180;842060;-68
2023/01/07 13:17:57;;;;;;;5.97;4.17;;;;;;;;;;771479;182;864259;-63
2023/01/07 13:20:37;;;;;;;5.77;4.30;;;;;;;;;;769097;181;920254;-63
2023/01/07 13:23:02;;;;;;;5.07;4.03;;;;;;;;;;765330;181;917684;-69
2023/01/07 13:25:34;;;;;;;7.23;4.90;;;;;;;;;;776938;181;919675;-64
2023/01/07 13:28:02;;;;;;;6.50;4.90;;;;;;;;;;766333;182;1021405;-64
2023/01/07 13:30:33;;;;;;;10.37;5.93;;;;;;;;;;769584;181;918593;-69
2023/01/07 13:33:03;;;;;;;5.95;5.35;;;;;;;;;;768171;181;879673;-69
2023/01/07 13:35:35;;;;;;;7.07;4.97;;;;;;;;;;772763;180;924656;-69
2023/01/07 13:38:05;;;;;;;7.47;5.23;;;;;;;;;;775078;180;917413;-63
2023/01/07 13:40:36;;;;;;;6.90;5.27;;;;;;;;;;765368;179;917890;-68
2023/01/07 13:43:02;;;;;;;8.00;5.70;;;;;;;;;;767604;182;921668;-68
2023/01/07 13:45:28;;;;;;;7.60;5.90;;;;;;;;;;771538;183;1022895;-68
2023/01/07 13:47:55;;;;;;;9.03;6.60;;;;;;;;;;770745;182;919957;-69
2023/01/07 13:50:22;;;;;;;8.33;5.77;;;;;;;;;;771182;180;921731;-63
2023/01/07 13:52:53;;;;;;;8.70;5.43;;;;;;;;;;771345;181;919068;-63
2023/01/07 13:55:25;;;;;;;7.47;5.83;;;;;;;;;;774028;180;816632;-63
2023/01/07 13:57:51;;;;;;;8.83;6.80;;;;;;;;;;770570;181;923763;-69
2023/01/07 14:00:23;;;;;;;10.80;6.53;;;;;;;;;;767843;181;918251;-69
2023/01/07 14:02:53;;;;;;;9.53;6.20;;;;;;;;;;768955;180;918214;-63
2023/01/07 14:05:21;;;;;;;9.18;6.62;;;;;;;;;;776495;181;892442;-69